createdAt,value
2022-08-23T00:00:53.110Z,99.90
2022-08-23T00:03:20.326Z,99.90
2022-08-23T00:05:47.942Z,99.90
2022-08-23T00:08:15.332Z,99.90
2022-08-23T00:10:42.426Z,99.90
2022-08-23T00:13:47.175Z,99.90
2022-08-23T00:18:59.205Z,99.90
2022-08-23T00:21:26.179Z,99.90
2022-08-23T00:23:53.184Z,99.90
2022-08-23T00:26:20.647Z,99.90
2022-08-23T00:28:49.108Z,99.90
2022-08-23T00:31:18.843Z,99.90
2022-08-23T00:33:45.982Z,99.90
2022-08-23T00:41:18.496Z,99.90
2022-08-23T00:44:04.482Z,99.90
2022-08-23T00:47:05.129Z,99.90
2022-08-23T00:49:35.407Z,99.90
2022-08-23T00:52:45.992Z,99.90
2022-08-23T00:55:14.443Z,99.90
2022-08-23T01:01:02.217Z,99.90
2022-08-23T01:03:38.707Z,99.90
2022-08-23T01:06:22.376Z,99.90
2022-08-23T01:08:56.647Z,99.90
2022-08-23T01:11:32.794Z,99.90
2022-08-23T01:14:11.274Z,99.90
2022-08-23T01:20:02.875Z,99.90
2022-08-23T01:22:41.919Z,99.90
2022-08-23T01:25:11.971Z,99.90
2022-08-23T01:27:45.328Z,99.90
2022-08-23T01:30:20.784Z,99.90
2022-08-23T01:32:54.767Z,99.90
2022-08-23T01:35:31.022Z,99.90
2022-08-23T01:43:01.644Z,99.90
2022-08-23T01:45:31.053Z,99.90
2022-08-23T01:47:59.310Z,99.90
2022-08-23T01:50:28.118Z,99.90
2022-08-23T01:52:57.226Z,99.90
2022-08-23T01:55:26.416Z,99.90
2022-08-23T01:57:56.565Z,99.90
2022-08-23T02:04:59.268Z,99.90
2022-08-23T02:07:28.498Z,99.90
2022-08-23T02:09:55.965Z,99.90
2022-08-23T02:12:23.400Z,99.90
2022-08-23T02:14:56.453Z,99.90
2022-08-23T02:17:25.890Z,99.90
2022-08-23T02:19:53.560Z,99.90
2022-08-23T02:25:10.874Z,99.90
2022-08-23T02:27:39.092Z,99.90
2022-08-23T02:30:13.254Z,99.90
2022-08-23T02:32:41.733Z,99.90
2022-08-23T02:35:10.638Z,99.90
2022-08-23T02:37:38.580Z,99.90
2022-08-23T02:40:06.708Z,99.90
2022-08-23T02:47:39.239Z,99.90
2022-08-23T02:50:14.458Z,99.90
2022-08-23T02:52:41.176Z,99.90
2022-08-23T02:55:08.877Z,99.90
2022-08-23T02:57:36.282Z,99.90
2022-08-23T03:00:05.207Z,99.90
2022-08-23T03:02:32.960Z,99.90
2022-08-23T03:08:23.511Z,99.90
2022-08-23T03:10:52.180Z,99.90
2022-08-23T03:13:20.335Z,99.90
2022-08-23T03:15:49.659Z,99.90
2022-08-23T03:18:17.171Z,99.90
2022-08-23T03:20:44.070Z,99.90
2022-08-23T03:23:12.316Z,99.90
2022-08-23T03:28:17.656Z,99.90
2022-08-23T03:30:45.897Z,99.90
2022-08-23T03:33:13.338Z,99.90
2022-08-23T03:35:41.566Z,99.90
2022-08-23T03:38:13.300Z,99.90
2022-08-23T03:40:41.555Z,99.90
2022-08-23T03:43:09.052Z,99.90
2022-08-23T03:49:16.252Z,99.90
2022-08-23T03:51:55.665Z,99.90
2022-08-23T03:54:22.947Z,99.90
2022-08-23T03:57:00.090Z,99.90
2022-08-23T03:59:30.625Z,99.90
2022-08-23T04:01:58.405Z,99.90
2022-08-23T04:04:27.285Z,99.90
2022-08-23T04:09:55.217Z,99.90
2022-08-23T04:12:25.016Z,99.90
2022-08-23T04:14:53.352Z,99.90
2022-08-23T04:17:21.751Z,99.90
2022-08-23T04:19:49.954Z,99.90
2022-08-23T04:22:19.409Z,99.90
2022-08-23T04:24:46.404Z,99.90
2022-08-23T04:30:05.760Z,99.90
2022-08-23T04:32:35.734Z,99.90
2022-08-23T04:35:06.388Z,99.90
2022-08-23T04:37:34.869Z,99.90
2022-08-23T04:40:22.309Z,99.90
2022-08-23T04:42:51.802Z,99.90
2022-08-23T04:45:19.115Z,99.90
2022-08-23T04:52:19.756Z,99.90
2022-08-23T04:54:49.640Z,99.90
2022-08-23T04:57:35.638Z,99.90
2022-08-23T05:00:03.415Z,99.90
2022-08-23T05:02:30.774Z,99.90
2022-08-23T05:04:57.854Z,99.90
2022-08-23T05:07:40.074Z,99.90
2022-08-23T05:14:32.331Z,99.90
2022-08-23T05:16:59.852Z,99.90
2022-08-23T05:19:27.140Z,99.90
2022-08-23T05:21:57.033Z,99.90
2022-08-23T05:24:37.119Z,99.90
2022-08-23T05:27:07.227Z,99.90
2022-08-23T05:29:36.874Z,99.90
2022-08-23T05:36:29.295Z,99.90
2022-08-23T05:38:56.489Z,99.90
2022-08-23T05:41:33.367Z,99.90
2022-08-23T05:44:10.161Z,99.90
2022-08-23T05:46:41.933Z,99.90
2022-08-23T05:49:23.287Z,99.90
2022-08-23T05:51:51.963Z,99.90
2022-08-23T05:58:41.584Z,99.90
2022-08-23T06:01:10.494Z,99.90
2022-08-23T06:03:37.974Z,99.90
2022-08-23T06:06:06.678Z,99.90
2022-08-23T06:08:35.060Z,99.90
2022-08-23T06:11:11.689Z,99.90
2022-08-23T06:13:49.405Z,99.90
2022-08-23T06:20:41.917Z,99.90
2022-08-23T06:23:15.626Z,99.90
2022-08-23T06:25:42.797Z,99.90
2022-08-23T06:28:16.222Z,99.90
2022-08-23T06:30:43.119Z,99.90
2022-08-23T06:33:42.604Z,99.90
2022-08-23T06:43:25.089Z,99.90
2022-08-23T06:46:19.728Z,99.90
2022-08-23T06:48:48.036Z,99.00
2022-08-23T06:51:48.894Z,98.10
2022-08-23T06:54:23.237Z,83.50
2022-08-23T06:57:07.910Z,80.30
2022-08-23T07:03:21.249Z,75.00
2022-08-23T07:06:24.920Z,94.40
2022-08-23T07:08:52.285Z,82.20
2022-08-23T07:11:21.429Z,78.90
2022-08-23T07:13:49.489Z,80.00
2022-08-23T07:16:18.864Z,79.40
2022-08-23T07:18:49.270Z,79.60
2022-08-23T07:26:23.494Z,75.40
2022-08-23T07:28:50.913Z,77.80
2022-08-23T07:31:28.245Z,73.90
2022-08-23T07:33:58.854Z,70.30
2022-08-23T07:36:28.641Z,67.70
2022-08-23T07:38:56.902Z,68.10
2022-08-23T07:41:28.873Z,67.50
2022-08-23T07:49:05.464Z,65.50
2022-08-23T07:51:38.074Z,63.20
2022-08-23T07:54:08.832Z,60.60
2022-08-23T07:56:45.999Z,60.10
2022-08-23T07:59:35.049Z,62.90
2022-08-23T08:02:19.004Z,63.40
2022-08-23T08:04:46.126Z,63.20
2022-08-23T08:22:49.200Z,64.70
2022-08-23T08:25:19.628Z,58.90
2022-08-23T08:27:49.789Z,59.00
2022-08-23T08:30:16.854Z,57.80
2022-08-23T08:32:47.501Z,57.00
2022-08-23T08:35:15.824Z,57.10
2022-08-23T08:37:43.785Z,54.00
2022-08-23T08:45:26.529Z,53.60
2022-08-23T08:48:13.486Z,49.80
2022-08-23T08:50:51.765Z,51.70
2022-08-23T08:53:22.883Z,51.20
2022-08-23T08:56:32.353Z,49.20
2022-08-23T08:59:13.270Z,48.30
2022-08-23T09:04:23.506Z,49.00
2022-08-23T09:07:09.837Z,48.20
2022-08-23T09:10:06.427Z,47.50
2022-08-23T09:12:56.985Z,46.30
2022-08-23T09:15:38.223Z,45.20
2022-08-23T09:18:15.505Z,44.90
2022-08-23T09:24:21.061Z,43.60
2022-08-23T09:26:58.955Z,42.10
2022-08-23T09:29:31.562Z,42.90
2022-08-23T09:32:03.163Z,43.80
2022-08-23T09:34:38.147Z,43.00
2022-08-23T09:37:15.997Z,42.20
2022-08-23T09:39:49.096Z,42.60
2022-08-23T09:45:37.179Z,42.50
2022-08-23T09:48:13.007Z,40.50
2022-08-23T09:50:54.515Z,41.90
2022-08-23T09:53:27.582Z,43.10
2022-08-23T09:55:57.956Z,42.40
2022-08-23T09:58:43.034Z,41.50
2022-08-23T10:04:38.558Z,39.80
2022-08-23T10:07:27.262Z,40.50
2022-08-23T10:10:17.497Z,40.50
2022-08-23T10:12:46.112Z,39.20
2022-08-23T10:15:15.253Z,39.60
2022-08-23T10:18:02.523Z,38.30
2022-08-23T10:23:42.719Z,39.70
2022-08-23T10:26:24.464Z,36.90
2022-08-23T10:29:20.732Z,37.90
2022-08-23T10:31:59.123Z,36.50
2022-08-23T10:35:03.118Z,37.20
2022-08-23T10:37:43.501Z,36.10
2022-08-23T10:56:23.458Z,36.60
2022-08-23T10:58:59.987Z,36.20
2022-08-23T11:02:08.161Z,36.10
2022-08-23T11:04:46.639Z,36.20
2022-08-23T11:07:37.638Z,35.10
2022-08-23T11:10:19.081Z,33.10
2022-08-23T11:18:39.244Z,35.90
2022-08-23T11:21:18.144Z,33.80
2022-08-23T11:23:57.905Z,34.40
2022-08-23T11:26:28.012Z,35.10
2022-08-23T11:29:22.876Z,35.00
2022-08-23T11:32:20.726Z,34.40
2022-08-23T11:40:51.318Z,35.00
2022-08-23T11:43:32.097Z,34.80
2022-08-23T11:46:25.221Z,35.00
2022-08-23T11:49:30.685Z,34.60
2022-08-23T11:52:52.493Z,33.10
2022-08-23T11:55:42.465Z,34.80
2022-08-23T12:03:59.473Z,35.20
2022-08-23T12:06:27.112Z,33.10
2022-08-23T12:09:01.682Z,33.10
2022-08-23T12:11:56.609Z,34.30
2022-08-23T12:14:51.069Z,35.60
2022-08-23T12:17:25.036Z,35.40
2022-08-23T12:23:50.690Z,34.90
2022-08-23T12:26:26.810Z,35.00
2022-08-23T12:29:32.244Z,35.50
2022-08-23T12:32:30.443Z,35.30
2022-08-23T12:35:19.020Z,34.40
2022-08-23T12:38:08.404Z,35.70
2022-08-23T12:56:03.640Z,35.70
2022-08-23T12:58:34.307Z,40.30
2022-08-23T13:01:06.220Z,40.50
2022-08-23T13:03:43.835Z,40.40
2022-08-23T13:06:18.387Z,40.60
2022-08-23T13:08:54.129Z,40.60
2022-08-23T13:14:37.899Z,41.40
2022-08-23T13:17:30.925Z,40.90
2022-08-23T13:20:07.869Z,41.30
2022-08-23T13:22:39.269Z,41.30
2022-08-23T13:25:28.862Z,40.90
2022-08-23T13:28:23.907Z,40.80
2022-08-23T13:36:21.890Z,41.90
2022-08-23T13:38:50.179Z,43.70
2022-08-23T13:41:38.527Z,43.30
2022-08-23T13:44:08.276Z,44.40
2022-08-23T13:46:45.071Z,43.40
2022-08-23T13:49:28.174Z,42.90
2022-08-23T13:58:32.498Z,44.00
2022-08-23T14:01:03.591Z,45.40
2022-08-23T14:03:32.082Z,45.80
2022-08-23T14:05:59.277Z,46.00
2022-08-23T14:08:30.834Z,46.10
2022-08-23T14:11:01.085Z,46.20
2022-08-23T14:13:33.956Z,47.00
2022-08-23T14:21:41.988Z,46.20
2022-08-23T14:24:09.141Z,46.60
2022-08-23T14:26:37.824Z,46.30
2022-08-23T14:29:21.584Z,46.30
2022-08-23T14:31:52.071Z,46.20
2022-08-23T14:52:06.021Z,47.00
2022-08-23T14:54:33.643Z,46.50
2022-08-23T14:57:00.664Z,47.10
2022-08-23T14:59:29.106Z,46.50
2022-08-23T15:01:57.318Z,46.90
2022-08-23T15:04:34.215Z,46.30
2022-08-23T15:07:19.300Z,45.60
2022-08-23T15:14:19.629Z,46.00
2022-08-23T15:16:47.286Z,46.30
2022-08-23T15:19:14.303Z,47.00
2022-08-23T15:21:41.568Z,47.40
2022-08-23T15:24:08.943Z,47.40
2022-08-23T15:26:36.286Z,47.70
2022-08-23T15:29:05.213Z,47.10
2022-08-23T15:31:33.170Z,47.00
2022-08-23T15:38:19.948Z,47.30
2022-08-23T15:40:48.432Z,47.50
2022-08-23T15:43:15.997Z,47.50
2022-08-23T15:45:43.159Z,48.10
2022-08-23T15:48:25.460Z,47.90
2022-08-23T15:50:54.056Z,47.70
2022-08-23T15:53:22.059Z,47.80
2022-08-23T15:58:30.193Z,48.50
2022-08-23T16:00:56.945Z,48.60
2022-08-23T16:03:24.688Z,48.30
2022-08-23T16:05:53.337Z,48.60
2022-08-23T16:08:35.146Z,48.90
2022-08-23T16:11:13.327Z,49.40
2022-08-23T16:13:51.638Z,49.30
2022-08-23T16:29:32.525Z,50.00
2022-08-23T16:32:00.486Z,50.80
2022-08-23T16:34:27.361Z,51.20
2022-08-23T16:36:58.045Z,51.30
2022-08-23T16:39:27.080Z,51.20
2022-08-23T16:41:54.700Z,51.30
2022-08-23T16:44:21.457Z,50.90
2022-08-23T16:51:54.237Z,51.30
2022-08-23T16:54:20.962Z,51.60
2022-08-23T16:56:48.259Z,51.40
2022-08-23T16:59:15.079Z,51.70
2022-08-23T17:01:54.261Z,51.60
2022-08-23T17:04:24.695Z,51.60
2022-08-23T17:06:59.694Z,51.20
2022-08-23T17:27:36.280Z,51.90
2022-08-23T17:30:05.682Z,51.70
2022-08-23T17:32:41.885Z,51.50
2022-08-23T17:35:14.954Z,51.80
2022-08-23T17:37:44.530Z,51.80
2022-08-23T17:40:15.196Z,51.80
2022-08-23T17:42:43.234Z,51.90
2022-08-23T17:50:29.965Z,52.80
2022-08-23T17:52:57.212Z,53.40
2022-08-23T17:55:24.585Z,53.70
2022-08-23T17:57:55.096Z,53.90
2022-08-23T18:00:26.038Z,53.70
2022-08-23T18:02:53.046Z,53.70
2022-08-23T18:05:20.239Z,53.90
2022-08-23T18:30:54.722Z,55.30
2022-08-23T18:33:25.215Z,55.70
2022-08-23T18:35:59.262Z,56.00
2022-08-23T18:38:26.459Z,56.20
2022-08-23T18:40:53.502Z,56.50
2022-08-23T18:43:29.151Z,56.80
2022-08-23T18:46:04.941Z,57.10
2022-08-23T18:53:36.368Z,57.50
2022-08-23T18:56:04.171Z,58.10
2022-08-23T18:58:31.182Z,58.30
2022-08-23T19:00:58.196Z,58.60
2022-08-23T19:03:25.511Z,58.50
2022-08-23T19:05:52.556Z,58.90
2022-08-23T19:08:19.978Z,59.00
2022-08-23T19:14:52.676Z,59.00
2022-08-23T19:17:19.796Z,59.30
2022-08-23T19:19:47.075Z,59.40
2022-08-23T19:22:14.023Z,59.40
2022-08-23T19:24:41.756Z,59.40
2022-08-23T19:27:09.358Z,59.50
2022-08-23T19:29:36.373Z,59.70
2022-08-23T19:50:23.844Z,58.30
2022-08-23T19:52:51.631Z,58.10
2022-08-23T19:55:19.379Z,58.20
2022-08-23T19:57:46.591Z,57.90
2022-08-23T20:00:19.119Z,57.70
2022-08-23T20:02:47.663Z,57.30
2022-08-23T20:05:15.248Z,57.40
2022-08-23T20:23:03.923Z,57.50
2022-08-23T20:25:31.136Z,57.00
2022-08-23T20:27:58.785Z,56.90
2022-08-23T20:30:25.782Z,56.80
2022-08-23T20:32:52.719Z,57.50
2022-08-23T20:35:19.449Z,56.80
2022-08-23T20:37:46.224Z,56.90
2022-08-23T20:45:21.079Z,57.40
2022-08-23T20:47:47.976Z,57.60
2022-08-23T20:50:15.396Z,57.90
2022-08-23T20:52:42.698Z,57.90
2022-08-23T20:55:11.041Z,58.00
2022-08-23T20:57:38.813Z,57.90
2022-08-23T21:00:07.519Z,58.10
2022-08-23T21:07:35.175Z,57.90
2022-08-23T21:10:04.603Z,57.80
2022-08-23T21:12:31.391Z,57.70
2022-08-23T21:14:58.009Z,57.50
2022-08-23T21:17:24.878Z,57.50
2022-08-23T21:19:51.596Z,57.60
2022-08-23T21:22:18.519Z,57.60
2022-08-23T21:27:32.909Z,57.70
2022-08-23T21:29:59.592Z,57.80
2022-08-23T21:32:27.371Z,57.90
2022-08-23T21:34:54.955Z,58.00
2022-08-23T21:37:22.049Z,58.40
2022-08-23T21:39:49.753Z,58.60
2022-08-23T21:42:23.074Z,58.90
2022-08-23T21:49:16.374Z,60.10
2022-08-23T21:51:44.825Z,61.70
2022-08-23T21:54:13.289Z,62.70
2022-08-23T21:56:41.257Z,62.70
2022-08-23T21:59:11.325Z,65.20
2022-08-23T22:01:38.618Z,65.00
2022-08-23T22:04:08.793Z,66.50
2022-08-23T22:11:45.868Z,68.70
2022-08-23T22:14:19.610Z,72.20
2022-08-23T22:16:48.769Z,76.00
2022-08-23T22:19:22.531Z,77.70
2022-08-23T22:21:53.289Z,79.70
2022-08-23T22:24:25.240Z,81.10
2022-08-23T22:26:54.242Z,78.90
2022-08-23T22:33:43.666Z,82.20
2022-08-23T22:36:17.707Z,75.10
2022-08-23T22:38:45.490Z,87.30
2022-08-23T22:41:17.004Z,89.60
2022-08-23T22:43:44.399Z,90.10
2022-08-23T22:46:11.760Z,92.90
2022-08-23T22:48:38.635Z,99.20
2022-08-23T22:53:55.627Z,99.40
2022-08-23T22:56:32.372Z,95.90
2022-08-23T22:58:59.493Z,99.90
2022-08-23T23:01:30.019Z,99.90
2022-08-23T23:03:59.629Z,99.90
2022-08-23T23:06:27.590Z,99.90
2022-08-23T23:08:55.633Z,99.90
2022-08-23T23:19:24.622Z,99.90
2022-08-23T23:21:53.934Z,99.90
2022-08-23T23:24:23.788Z,99.90
2022-08-23T23:26:51.297Z,99.90
2022-08-23T23:29:19.372Z,99.90
2022-08-23T23:31:46.455Z,99.90
2022-08-23T23:34:14.298Z,99.90
2022-08-23T23:41:45.359Z,99.90
2022-08-23T23:44:12.346Z,99.90
2022-08-23T23:46:39.621Z,99.90
2022-08-23T23:49:06.510Z,99.90
2022-08-23T23:51:33.645Z,99.90
2022-08-23T23:54:01.256Z,99.90
2022-08-23T23:56:30.132Z,99.90
